createdAt,value
2018-09-18T00:01:36.778Z,14.35
2018-09-18T00:04:06.312Z,14.36
2018-09-18T00:06:35.747Z,14.35
2018-09-18T00:09:07.585Z,14.34
2018-09-18T00:11:37.656Z,14.32
2018-09-18T00:14:07.406Z,14.29
2018-09-18T00:16:36.830Z,14.30
2018-09-18T00:19:06.500Z,14.22
2018-09-18T00:21:36.724Z,14.13
2018-09-18T00:24:06.246Z,14.13
2018-09-18T00:26:35.748Z,14.11
2018-09-18T00:29:05.197Z,14.08
2018-09-18T00:31:34.670Z,14.04
2018-09-18T00:34:04.133Z,14.04
2018-09-18T00:36:33.620Z,13.97
2018-09-18T00:39:03.624Z,13.99
2018-09-18T00:41:33.036Z,13.92
2018-09-18T00:44:02.445Z,13.89
2018-09-18T00:46:31.842Z,13.88
2018-09-18T00:49:01.278Z,13.82
2018-09-18T00:51:30.656Z,13.79
2018-09-18T00:54:00.101Z,13.77
2018-09-18T00:56:29.495Z,13.65
2018-09-18T00:58:59.439Z,13.72
2018-09-18T01:01:28.817Z,13.75
2018-09-18T01:03:58.238Z,13.77
2018-09-18T01:06:27.684Z,13.74
2018-09-18T01:08:57.620Z,13.72
2018-09-18T01:11:27.013Z,13.73
2018-09-18T01:13:56.577Z,13.69
2018-09-18T01:16:25.971Z,13.67
2018-09-18T01:18:55.397Z,13.58
2018-09-18T01:21:24.875Z,13.52
2018-09-18T01:23:54.282Z,13.48
2018-09-18T01:26:23.693Z,13.46
2018-09-18T01:28:53.074Z,13.40
2018-09-18T01:31:22.517Z,13.43
2018-09-18T01:33:51.925Z,13.36
2018-09-18T01:36:21.817Z,13.35
2018-09-18T01:38:51.325Z,13.37
2018-09-18T01:41:20.724Z,13.36
2018-09-18T01:43:50.208Z,13.35
2018-09-18T01:46:19.607Z,13.33
2018-09-18T01:48:49.555Z,13.27
2018-09-18T01:51:18.951Z,13.27
2018-09-18T01:53:49.131Z,13.26
2018-09-18T01:56:18.627Z,13.23
2018-09-18T01:58:48.165Z,13.20
2018-09-18T02:01:17.542Z,13.20
2018-09-18T02:03:46.966Z,13.18
2018-09-18T02:06:16.410Z,13.11
2018-09-18T02:08:45.862Z,13.13
2018-09-18T02:11:15.346Z,13.06
2018-09-18T02:13:46.296Z,13.07
2018-09-18T02:16:15.740Z,13.06
2018-09-18T02:18:45.194Z,13.03
2018-09-18T02:21:14.589Z,13.00
2018-09-18T02:23:45.088Z,12.94
2018-09-18T02:26:14.543Z,12.87
2018-09-18T02:28:44.040Z,12.85
2018-09-18T02:31:13.443Z,12.81
2018-09-18T02:33:42.829Z,12.80
2018-09-18T02:36:12.243Z,12.84
2018-09-18T02:38:41.669Z,12.85
2018-09-18T02:41:11.052Z,12.84
2018-09-18T02:43:40.916Z,12.87
2018-09-18T02:46:10.638Z,12.87
2018-09-18T02:48:40.170Z,12.84
2018-09-18T02:51:09.730Z,12.82
2018-09-18T02:53:39.447Z,12.82
2018-09-18T02:56:08.886Z,12.84
2018-09-18T02:58:38.354Z,12.77
2018-09-18T03:01:07.815Z,12.73
2018-09-18T03:03:37.829Z,12.70
2018-09-18T03:06:07.430Z,12.65
2018-09-18T03:08:36.835Z,12.60
2018-09-18T03:11:06.319Z,12.59
2018-09-18T03:13:36.675Z,12.61
2018-09-18T03:16:06.207Z,12.63
2018-09-18T03:18:35.663Z,12.64
2018-09-18T03:21:06.827Z,12.68
2018-09-18T03:23:36.170Z,12.69
2018-09-18T03:26:05.586Z,12.72
2018-09-18T03:28:34.979Z,12.71
2018-09-18T03:31:04.438Z,12.67
2018-09-18T03:33:33.898Z,12.60
2018-09-18T03:36:03.355Z,12.62
2018-09-18T03:38:32.853Z,12.60
2018-09-18T03:41:02.283Z,12.58
2018-09-18T03:43:31.817Z,12.61
2018-09-18T03:46:01.281Z,12.63
2018-09-18T03:48:30.785Z,12.61
2018-09-18T03:51:00.190Z,12.60
2018-09-18T03:53:29.626Z,12.58
2018-09-18T03:55:59.575Z,12.54
2018-09-18T03:58:29.011Z,12.54
2018-09-18T04:00:58.475Z,12.52
2018-09-18T04:03:27.845Z,12.52
2018-09-18T04:05:57.512Z,12.51
2018-09-18T04:08:26.958Z,12.48
2018-09-18T04:10:56.370Z,12.43
2018-09-18T04:13:25.802Z,12.41
2018-09-18T04:15:56.034Z,12.39
2018-09-18T04:18:26.589Z,12.37
2018-09-18T04:20:55.945Z,12.41
2018-09-18T04:23:26.079Z,12.40
2018-09-18T04:25:55.582Z,12.41
2018-09-18T04:28:26.070Z,12.43
2018-09-18T04:30:56.396Z,12.41
2018-09-18T04:33:25.779Z,12.37
2018-09-18T04:35:55.217Z,12.31
2018-09-18T04:38:24.694Z,12.31
2018-09-18T04:40:54.120Z,12.29
2018-09-18T04:43:23.808Z,12.31
2018-09-18T04:45:53.299Z,12.30
2018-09-18T04:48:22.715Z,12.30
2018-09-18T04:50:52.090Z,12.25
2018-09-18T04:53:21.480Z,12.21
2018-09-18T04:55:50.901Z,12.19
2018-09-18T04:58:20.291Z,12.13
2018-09-18T05:00:49.703Z,12.08
2018-09-18T05:03:20.086Z,12.08
2018-09-18T05:05:49.564Z,12.04
2018-09-18T05:08:19.010Z,12.00
2018-09-18T05:10:48.968Z,11.96
2018-09-18T05:13:18.934Z,11.93
2018-09-18T05:15:48.363Z,11.94
2018-09-18T05:18:17.777Z,11.95
2018-09-18T05:20:47.252Z,11.93
2018-09-18T05:23:17.479Z,11.92
2018-09-18T05:25:46.925Z,11.90
2018-09-18T05:28:16.310Z,11.87
2018-09-18T05:30:45.757Z,11.84
2018-09-18T05:33:15.201Z,11.83
2018-09-18T05:35:44.645Z,11.88
2018-09-18T05:38:14.722Z,11.87
2018-09-18T05:40:45.385Z,11.85
2018-09-18T05:43:14.807Z,11.85
2018-09-18T05:45:44.227Z,11.85
2018-09-18T05:48:13.995Z,11.84
2018-09-18T05:50:43.609Z,11.87
2018-09-18T05:53:13.454Z,11.86
2018-09-18T05:55:42.852Z,11.90
2018-09-18T05:58:12.327Z,11.92
2018-09-18T06:00:41.749Z,11.93
2018-09-18T06:03:11.194Z,11.94
2018-09-18T06:05:40.596Z,11.92
2018-09-18T06:08:09.988Z,11.93
2018-09-18T06:10:39.450Z,11.96
2018-09-18T06:13:08.976Z,11.97
2018-09-18T06:15:38.375Z,11.98
2018-09-18T06:18:07.825Z,12.02
2018-09-18T06:20:37.270Z,12.02
2018-09-18T06:23:06.750Z,12.06
2018-09-18T06:25:36.160Z,12.09
2018-09-18T06:28:05.588Z,12.13
2018-09-18T06:30:34.986Z,12.17
2018-09-18T06:33:04.414Z,12.19
2018-09-18T06:35:33.834Z,12.23
2018-09-18T06:38:03.226Z,12.27
2018-09-18T06:40:32.660Z,12.33
2018-09-18T06:43:02.157Z,12.36
2018-09-18T06:45:31.572Z,12.39
2018-09-18T06:48:01.025Z,12.42
2018-09-18T06:50:30.364Z,12.44
2018-09-18T06:52:59.788Z,12.48
2018-09-18T06:55:29.278Z,12.49
2018-09-18T06:57:59.131Z,12.55
2018-09-18T07:00:28.606Z,12.58
2018-09-18T07:02:58.011Z,12.60
2018-09-18T07:05:27.471Z,12.67
2018-09-18T07:07:57.475Z,12.72
2018-09-18T07:10:26.895Z,12.77
2018-09-18T07:12:56.368Z,12.83
2018-09-18T07:15:25.932Z,12.90
2018-09-18T07:17:55.380Z,12.95
2018-09-18T07:20:24.969Z,13.00
2018-09-18T07:22:54.368Z,13.07
2018-09-18T07:25:23.817Z,13.11
2018-09-18T07:27:53.768Z,13.17
2018-09-18T07:30:23.265Z,13.24
2018-09-18T07:32:52.666Z,13.28
2018-09-18T07:35:22.074Z,13.34
2018-09-18T07:37:51.503Z,13.42
2018-09-18T07:40:20.949Z,13.49
2018-09-18T07:42:50.480Z,13.53
2018-09-18T07:45:19.921Z,13.59
2018-09-18T07:47:49.315Z,13.66
2018-09-18T07:50:18.751Z,13.72
2018-09-18T07:52:48.164Z,13.78
2018-09-18T07:55:17.604Z,13.84
2018-09-18T07:57:47.055Z,13.89
2018-09-18T08:00:16.453Z,13.96
2018-09-18T08:02:45.933Z,14.03
2018-09-18T08:05:15.370Z,14.11
2018-09-18T08:07:44.840Z,14.19
2018-09-18T08:10:14.300Z,14.26
2018-09-18T08:12:43.700Z,14.34
2018-09-18T08:15:13.168Z,14.43
2018-09-18T08:17:42.570Z,14.53
2018-09-18T08:20:12.008Z,14.67
2018-09-18T08:22:41.432Z,14.79
2018-09-18T08:25:10.944Z,14.89
2018-09-18T08:27:40.296Z,15.22
2018-09-18T08:30:09.845Z,15.60
2018-09-18T08:32:39.269Z,16.15
2018-09-18T08:35:09.397Z,16.40
2018-09-18T08:37:38.873Z,16.62
2018-09-18T08:40:08.492Z,16.88
2018-09-18T08:42:37.810Z,17.19
2018-09-18T08:45:07.378Z,17.32
2018-09-18T08:47:37.815Z,17.35
2018-09-18T08:50:07.920Z,17.46
2018-09-18T08:52:37.405Z,17.73
2018-09-18T08:55:06.818Z,17.81
2018-09-18T08:57:36.256Z,17.88
2018-09-18T09:00:06.832Z,17.97
2018-09-18T09:02:36.304Z,18.10
2018-09-18T09:05:05.781Z,18.11
2018-09-18T09:07:35.316Z,18.20
2018-09-18T09:10:04.882Z,18.25
2018-09-18T09:12:34.320Z,18.28
2018-09-18T09:15:03.887Z,18.37
2018-09-18T09:17:33.323Z,18.48
2018-09-18T09:20:02.857Z,18.65
2018-09-18T09:22:32.393Z,18.80
2018-09-18T09:25:01.801Z,18.85
2018-09-18T09:27:31.285Z,19.05
2018-09-18T09:30:03.541Z,19.04
2018-09-18T09:32:33.031Z,19.08
2018-09-18T09:35:02.448Z,19.11
2018-09-18T09:37:31.904Z,19.12
2018-09-18T09:40:01.330Z,19.19
2018-09-18T09:42:30.778Z,19.22
2018-09-18T09:45:00.308Z,19.29
2018-09-18T09:47:29.734Z,19.35
2018-09-18T09:49:59.122Z,19.40
2018-09-18T09:52:28.599Z,19.45
2018-09-18T09:54:59.021Z,19.55
2018-09-18T09:57:28.490Z,19.71
2018-09-18T09:59:57.956Z,19.76
2018-09-18T10:02:30.653Z,19.93
2018-09-18T10:05:00.095Z,20.16
2018-09-18T10:07:29.532Z,20.22
2018-09-18T10:09:58.980Z,20.24
2018-09-18T10:12:28.404Z,20.28
2018-09-18T10:14:57.859Z,20.30
2018-09-18T10:17:27.315Z,20.35
2018-09-18T10:19:56.745Z,20.40
2018-09-18T10:22:26.171Z,20.47
2018-09-18T10:24:55.663Z,20.68
2018-09-18T10:27:25.112Z,20.74
2018-09-18T10:29:54.573Z,20.82
2018-09-18T10:32:24.022Z,20.86
2018-09-18T10:34:53.504Z,21.00
2018-09-18T10:37:22.981Z,21.37
2018-09-18T10:39:52.415Z,21.50
2018-09-18T10:42:21.814Z,21.48
2018-09-18T10:44:51.239Z,21.53
2018-09-18T10:47:20.664Z,21.75
2018-09-18T10:49:50.071Z,21.87
2018-09-18T10:52:19.504Z,22.08
2018-09-18T10:54:48.975Z,22.10
2018-09-18T10:57:18.345Z,22.25
2018-09-18T10:59:47.838Z,22.26
2018-09-18T11:02:17.384Z,22.40
2018-09-18T11:04:46.706Z,22.47
2018-09-18T11:07:16.208Z,22.56
2018-09-18T11:09:45.838Z,22.60
2018-09-18T11:12:15.983Z,22.59
2018-09-18T11:14:45.326Z,22.74
2018-09-18T11:17:14.795Z,22.89
2018-09-18T11:19:44.268Z,22.91
2018-09-18T11:22:13.660Z,22.95
2018-09-18T11:24:43.069Z,23.00
2018-09-18T11:27:12.474Z,23.14
2018-09-18T11:29:41.928Z,23.25
2018-09-18T11:32:14.689Z,23.28
2018-09-18T11:34:44.132Z,23.31
2018-09-18T11:37:13.561Z,23.34
2018-09-18T11:39:43.081Z,23.36
2018-09-18T11:42:12.480Z,23.64
2018-09-18T11:44:42.750Z,23.69
2018-09-18T11:47:12.997Z,23.88
2018-09-18T11:49:42.433Z,23.80
2018-09-18T11:52:11.963Z,23.92
2018-09-18T11:54:41.948Z,23.92
2018-09-18T11:57:12.350Z,24.03
2018-09-18T11:59:41.703Z,24.11
2018-09-18T12:02:11.213Z,24.20
2018-09-18T12:04:41.413Z,24.29
2018-09-18T12:07:10.818Z,24.33
2018-09-18T12:09:40.364Z,24.40
2018-09-18T12:12:09.889Z,24.44
2018-09-18T12:14:39.427Z,24.40
2018-09-18T12:17:09.800Z,24.44
2018-09-18T12:19:39.229Z,24.43
2018-09-18T12:22:08.669Z,24.50
2018-09-18T12:24:38.073Z,24.53
2018-09-18T12:27:07.500Z,24.77
2018-09-18T12:29:36.909Z,24.82
2018-09-18T12:32:06.558Z,24.90
2018-09-18T12:34:35.929Z,24.99
2018-09-18T12:37:05.400Z,25.01
2018-09-18T12:39:34.774Z,25.03
2018-09-18T12:42:04.267Z,24.99
2018-09-18T12:44:33.917Z,25.11
2018-09-18T12:47:03.403Z,25.23
2018-09-18T12:49:32.966Z,25.24
2018-09-18T12:52:02.347Z,25.31
2018-09-18T12:54:31.798Z,25.39
2018-09-18T12:57:01.370Z,25.49
2018-09-18T12:59:30.744Z,25.47
2018-09-18T13:02:00.190Z,25.52
2018-09-18T13:04:29.653Z,25.54
2018-09-18T13:06:59.070Z,25.58
2018-09-18T13:09:28.607Z,25.67
2018-09-18T13:11:58.012Z,25.65
2018-09-18T13:14:27.432Z,25.80
2018-09-18T13:16:56.881Z,25.84
2018-09-18T13:19:26.300Z,25.79
2018-09-18T13:21:55.766Z,25.87
2018-09-18T13:24:25.247Z,25.88
2018-09-18T13:26:54.693Z,25.88
2018-09-18T13:29:24.084Z,25.92
2018-09-18T13:31:53.588Z,25.96
2018-09-18T13:34:23.184Z,26.08
2018-09-18T13:36:52.662Z,26.13
2018-09-18T13:39:22.130Z,26.16
2018-09-18T13:41:51.514Z,26.25
2018-09-18T13:44:20.986Z,26.35
2018-09-18T13:46:51.251Z,26.47
2018-09-18T13:49:22.268Z,26.68
2018-09-18T13:51:51.727Z,27.19
2018-09-18T13:54:21.151Z,27.49
2018-09-18T13:56:50.696Z,27.87
2018-09-18T13:59:20.125Z,28.00
2018-09-18T14:01:49.644Z,28.09
2018-09-18T14:04:19.198Z,28.20
2018-09-18T14:06:48.617Z,28.21
2018-09-18T14:09:18.142Z,28.15
2018-09-18T14:11:47.601Z,28.07
2018-09-18T14:14:17.258Z,28.08
2018-09-18T14:16:46.712Z,28.04
2018-09-18T14:19:16.178Z,28.04
2018-09-18T14:21:45.658Z,28.00
2018-09-18T14:24:15.063Z,28.01
2018-09-18T14:26:45.276Z,28.00
2018-09-18T14:29:15.568Z,28.08
2018-09-18T14:31:45.026Z,28.14
2018-09-18T14:34:14.422Z,28.15
2018-09-18T14:36:43.880Z,28.14
2018-09-18T14:39:13.376Z,28.17
2018-09-18T14:41:42.827Z,28.25
2018-09-18T14:44:12.258Z,28.27
2018-09-18T14:46:41.701Z,28.27
2018-09-18T14:49:11.575Z,28.30
2018-09-18T14:51:41.052Z,28.34
2018-09-18T14:54:10.488Z,28.29
2018-09-18T14:56:40.015Z,28.30
2018-09-18T14:59:09.466Z,28.34
2018-09-18T15:01:39.015Z,28.37
2018-09-18T15:04:08.427Z,28.44
2018-09-18T15:06:37.841Z,28.48
2018-09-18T15:09:10.239Z,28.50
2018-09-18T15:11:39.862Z,28.45
2018-09-18T15:14:09.646Z,28.55
2018-09-18T15:16:39.179Z,28.55
2018-09-18T15:19:09.268Z,28.53
2018-09-18T15:21:38.876Z,28.53
2018-09-18T15:24:08.169Z,28.58
2018-09-18T15:26:37.989Z,28.50
2018-09-18T15:29:07.468Z,28.50
2018-09-18T15:31:36.872Z,28.48
2018-09-18T15:34:06.575Z,28.47
2018-09-18T15:36:36.047Z,28.35
2018-09-18T15:39:08.748Z,28.29
2018-09-18T15:41:38.303Z,28.20
2018-09-18T15:44:08.196Z,28.14
2018-09-18T15:46:37.908Z,28.08
2018-09-18T15:49:07.495Z,27.98
2018-09-18T15:51:37.042Z,27.91
2018-09-18T15:54:06.771Z,27.82
2018-09-18T15:56:36.563Z,27.73
2018-09-18T15:59:06.012Z,27.63
2018-09-18T16:01:35.467Z,27.57
2018-09-18T16:04:05.135Z,27.46
2018-09-18T16:06:34.565Z,27.32
2018-09-18T16:09:07.088Z,27.25
2018-09-18T16:11:37.776Z,27.19
2018-09-18T16:14:07.278Z,27.10
2018-09-18T16:16:36.776Z,27.01
2018-09-18T16:19:07.076Z,26.95
2018-09-18T16:21:36.474Z,26.89
2018-09-18T16:24:06.036Z,26.83
2018-09-18T16:26:35.614Z,26.75
2018-09-18T16:29:05.093Z,26.73
2018-09-18T16:31:34.560Z,26.72
2018-09-18T16:34:04.037Z,26.65
2018-09-18T16:36:33.514Z,26.64
2018-09-18T16:39:03.118Z,26.58
2018-09-18T16:41:32.583Z,26.60
2018-09-18T16:44:02.040Z,26.55
2018-09-18T16:46:32.365Z,26.52
2018-09-18T16:49:04.009Z,26.49
2018-09-18T16:51:33.991Z,26.46
2018-09-18T16:54:03.482Z,26.37
2018-09-18T16:56:33.016Z,26.35
2018-09-18T16:59:03.923Z,26.28
2018-09-18T17:01:33.388Z,26.21
2018-09-18T17:04:02.858Z,26.19
2018-09-18T17:06:32.693Z,26.08
2018-09-18T17:09:02.152Z,26.06
2018-09-18T17:11:31.634Z,26.01
2018-09-18T17:14:02.025Z,25.96
2018-09-18T17:16:31.626Z,25.91
2018-09-18T17:19:02.010Z,25.81
2018-09-18T17:21:31.522Z,25.74
2018-09-18T17:24:00.966Z,25.67
2018-09-18T17:26:30.414Z,25.60
2018-09-18T17:29:00.865Z,25.53
2018-09-18T17:31:30.302Z,25.47
2018-09-18T17:33:59.960Z,25.37
2018-09-18T17:36:30.522Z,25.23
2018-09-18T17:39:00.081Z,25.21
2018-09-18T17:41:29.561Z,25.14
2018-09-18T17:43:59.054Z,25.04
2018-09-18T17:46:29.588Z,24.98
2018-09-18T17:49:00.017Z,24.95
2018-09-18T17:51:29.993Z,24.89
2018-09-18T17:53:59.589Z,24.83
2018-09-18T17:56:29.171Z,24.74
2018-09-18T17:58:58.634Z,24.68
2018-09-18T18:01:28.282Z,24.60
2018-09-18T18:03:59.048Z,24.57
2018-09-18T18:06:28.596Z,24.49
2018-09-18T18:08:58.031Z,24.45
2018-09-18T18:11:27.499Z,24.39
2018-09-18T18:13:56.900Z,24.33
2018-09-18T18:16:26.513Z,24.28
2018-09-18T18:18:56.064Z,24.23
2018-09-18T18:21:25.568Z,24.17
2018-09-18T18:23:55.067Z,24.13
2018-09-18T18:26:24.536Z,24.05
2018-09-18T18:28:54.107Z,23.98
2018-09-18T18:31:25.604Z,23.89
2018-09-18T18:33:55.149Z,23.82
2018-09-18T18:36:24.742Z,23.75
2018-09-18T18:38:54.316Z,23.65
2018-09-18T18:41:23.845Z,23.53
2018-09-18T18:43:53.319Z,23.45
2018-09-18T18:46:22.857Z,23.38
2018-09-18T18:48:56.037Z,23.32
2018-09-18T18:51:25.544Z,23.18
2018-09-18T18:53:55.162Z,23.10
2018-09-18T18:56:24.645Z,23.00
2018-09-18T18:58:54.259Z,22.93
2018-09-18T19:01:23.725Z,22.89
2018-09-18T19:03:53.206Z,22.80
2018-09-18T19:06:23.479Z,22.74
2018-09-18T19:08:52.925Z,22.70
2018-09-18T19:11:22.403Z,22.66
2018-09-18T19:13:52.849Z,22.58
2018-09-18T19:16:23.935Z,22.52
2018-09-18T19:18:54.353Z,22.47
2018-09-18T19:21:23.770Z,22.36
2018-09-18T19:23:53.266Z,22.29
2018-09-18T19:26:22.758Z,22.24
2018-09-18T19:28:52.246Z,22.14
2018-09-18T19:31:21.718Z,22.08
2018-09-18T19:33:51.229Z,22.06
2018-09-18T19:36:21.553Z,21.98
2018-09-18T19:38:51.130Z,21.88
2018-09-18T19:41:21.126Z,21.80
2018-09-18T19:43:50.558Z,21.76
2018-09-18T19:46:20.054Z,21.72
2018-09-18T19:48:49.493Z,21.66
2018-09-18T19:51:19.219Z,21.59
2018-09-18T19:53:48.622Z,21.51
2018-09-18T19:56:18.152Z,21.44
2018-09-18T19:58:48.895Z,21.40
2018-09-18T20:01:18.410Z,21.33
2018-09-18T20:03:47.884Z,21.27
2018-09-18T20:06:17.346Z,21.22
2018-09-18T20:08:46.881Z,21.15
2018-09-18T20:11:16.407Z,21.14
2018-09-18T20:13:45.827Z,21.07
2018-09-18T20:16:15.358Z,21.04
2018-09-18T20:18:44.864Z,21.02
2018-09-18T20:21:14.336Z,20.98
2018-09-18T20:23:43.862Z,20.96
2018-09-18T20:26:13.338Z,20.89
2018-09-18T20:28:42.802Z,20.91
2018-09-18T20:31:12.295Z,20.88
2018-09-18T20:33:41.743Z,20.79
2018-09-18T20:36:11.430Z,20.79
2018-09-18T20:38:40.802Z,20.74
2018-09-18T20:41:11.317Z,20.76
2018-09-18T20:43:41.850Z,20.74
2018-09-18T20:46:11.972Z,20.73
2018-09-18T20:48:41.476Z,20.71
2018-09-18T20:51:10.974Z,20.69
2018-09-18T20:53:40.584Z,20.66
2018-09-18T20:56:10.096Z,20.67
2018-09-18T20:58:39.592Z,20.68
2018-09-18T21:01:09.070Z,20.67
2018-09-18T21:03:38.498Z,20.65
2018-09-18T21:06:08.131Z,20.65
2018-09-18T21:08:37.756Z,20.59
2018-09-18T21:11:07.761Z,20.56
2018-09-18T21:13:37.204Z,20.53
2018-09-18T21:16:07.394Z,20.50
2018-09-18T21:18:37.408Z,20.49
2018-09-18T21:21:07.029Z,20.49
2018-09-18T21:23:36.606Z,20.50
2018-09-18T21:26:13.241Z,20.47
2018-09-18T21:28:42.679Z,20.44
2018-09-18T21:31:12.144Z,20.38
2018-09-18T21:33:41.636Z,20.36
2018-09-18T21:36:11.092Z,20.34
2018-09-18T21:38:40.557Z,20.28
2018-09-18T21:41:10.036Z,20.27
2018-09-18T21:43:39.492Z,20.25
2018-09-18T21:46:08.986Z,20.22
2018-09-18T21:48:38.495Z,20.22
2018-09-18T21:51:07.980Z,20.20
2018-09-18T21:53:37.471Z,20.18
2018-09-18T21:56:07.061Z,20.16
2018-09-18T21:58:36.437Z,20.16
2018-09-18T22:01:06.928Z,20.14
2018-09-18T22:03:36.536Z,20.14
2018-09-18T22:06:05.984Z,20.13
2018-09-18T22:08:37.034Z,20.13
2018-09-18T22:11:07.151Z,20.10
2018-09-18T22:13:36.628Z,20.08
2018-09-18T22:16:06.094Z,20.03
2018-09-18T22:18:36.177Z,20.03
2018-09-18T22:21:05.726Z,20.02
2018-09-18T22:23:36.138Z,20.02
2018-09-18T22:26:05.799Z,20.01
2018-09-18T22:28:35.302Z,19.99
2018-09-18T22:31:04.928Z,19.96
2018-09-18T22:33:34.380Z,19.92
2018-09-18T22:36:03.902Z,19.90
2018-09-18T22:38:33.472Z,19.88
2018-09-18T22:41:02.992Z,19.86
2018-09-18T22:43:32.490Z,19.84
2018-09-18T22:46:02.031Z,19.83
2018-09-18T22:48:32.545Z,19.79
2018-09-18T22:51:03.094Z,19.76
2018-09-18T22:53:32.611Z,19.73
2018-09-18T22:56:02.079Z,19.70
2018-09-18T22:58:31.513Z,19.71
2018-09-18T23:01:01.056Z,19.68
2018-09-18T23:03:30.502Z,19.67
2018-09-18T23:05:59.969Z,19.67
2018-09-18T23:08:29.424Z,19.63
2018-09-18T23:10:58.910Z,19.63
2018-09-18T23:13:28.365Z,19.57
2018-09-18T23:15:57.919Z,19.52
2018-09-18T23:18:27.448Z,19.50
2018-09-18T23:20:56.853Z,19.50
2018-09-18T23:23:27.195Z,19.47
2018-09-18T23:25:56.604Z,19.39
2018-09-18T23:28:27.216Z,19.41
2018-09-18T23:30:56.648Z,19.39
2018-09-18T23:33:27.073Z,19.35
2018-09-18T23:35:57.031Z,19.31
2018-09-18T23:38:26.481Z,19.32
2018-09-18T23:40:55.870Z,19.30
2018-09-18T23:43:25.289Z,19.31
2018-09-18T23:45:54.731Z,19.28
2018-09-18T23:48:24.411Z,19.25
2018-09-18T23:50:53.894Z,19.21
2018-09-18T23:53:23.340Z,19.19
2018-09-18T23:55:52.781Z,19.17
2018-09-18T23:58:22.217Z,19.13
